sensor_id;sensor_type;location;lat;lon;timestamp;pressure;altitude;pressure_sealevel;temperature;humidity
60897;BME280;46749;32.932;-117.130;2023-09-18T00:00:53;101157.84;;;19.63;63.26
60897;BME280;46749;32.932;-117.130;2023-09-18T00:03:21;101153.47;;;19.64;63.85
60897;BME280;46749;32.932;-117.130;2023-09-18T00:05:51;101163.13;;;19.63;63.22
60897;BME280;46749;32.932;-117.130;2023-09-18T00:08:18;101167.50;;;19.64;63.78
60897;BME280;46749;32.932;-117.130;2023-09-18T00:10:53;101166.63;;;19.64;63.77
60897;BME280;46749;32.932;-117.130;2023-09-18T00:13:19;101165.75;;;19.63;63.44
60897;BME280;46749;32.932;-117.130;2023-09-18T00:15:46;101165.75;;;19.63;63.34
60897;BME280;46749;32.932;-117.130;2023-09-18T00:18:14;101160.47;;;19.63;63.45
60897;BME280;46749;32.932;-117.130;2023-09-18T00:20:41;101159.59;;;19.63;63.93
60897;BME280;46749;32.932;-117.130;2023-09-18T00:23:08;101171.03;;;19.63;63.58
60897;BME280;46749;32.932;-117.130;2023-09-18T00:25:34;101162.25;;;19.63;63.45
60897;BME280;46749;32.932;-117.130;2023-09-18T00:28:01;101171.03;;;19.63;63.51
60897;BME280;46749;32.932;-117.130;2023-09-18T00:30:27;101164.00;;;19.64;63.92
60897;BME280;46749;32.932;-117.130;2023-09-18T00:32:53;101165.75;;;19.63;63.71
60897;BME280;46749;32.932;-117.130;2023-09-18T00:35:19;101163.13;;;19.63;63.61
60897;BME280;46749;32.932;-117.130;2023-09-18T00:37:46;101158.72;;;19.64;63.39
60897;BME280;46749;32.932;-117.130;2023-09-18T00:40:12;101157.84;;;19.63;63.75
60897;BME280;46749;32.932;-117.130;2023-09-18T00:42:38;101160.47;;;19.63;63.56
60897;BME280;46749;32.932;-117.130;2023-09-18T00:45:05;101145.56;;;19.62;63.73
60897;BME280;46749;32.932;-117.130;2023-09-18T00:47:31;101156.97;;;19.63;63.62
60897;BME280;46749;32.932;-117.130;2023-09-18T00:49:58;101151.69;;;19.63;63.95
60897;BME280;46749;32.932;-117.130;2023-09-18T00:52:25;101164.88;;;19.63;63.59
60897;BME280;46749;32.932;-117.130;2023-09-18T00:54:52;101164.88;;;19.64;63.49
60897;BME280;46749;32.932;-117.130;2023-09-18T00:57:20;101166.63;;;19.62;63.45
60897;BME280;46749;32.932;-117.130;2023-09-18T00:59:46;101166.63;;;19.62;63.56
60897;BME280;46749;32.932;-117.130;2023-09-18T01:02:12;101160.47;;;19.63;63.87
60897;BME280;46749;32.932;-117.130;2023-09-18T01:04:39;101168.38;;;19.62;63.91
60897;BME280;46749;32.932;-117.130;2023-09-18T01:07:10;101160.47;;;19.63;63.52
60897;BME280;46749;32.932;-117.130;2023-09-18T01:09:36;101158.72;;;19.62;63.48
60897;BME280;46749;32.932;-117.130;2023-09-18T01:12:44;101158.72;;;19.62;63.62
60897;BME280;46749;32.932;-117.130;2023-09-18T01:15:32;101162.25;;;19.64;63.70
60897;BME280;46749;32.932;-117.130;2023-09-18T01:18:00;101153.47;;;19.65;63.82
60897;BME280;46749;32.932;-117.130;2023-09-18T01:20:26;101156.97;;;19.64;63.53
60897;BME280;46749;32.932;-117.130;2023-09-18T01:22:53;101160.47;;;19.63;63.72
60897;BME280;46749;32.932;-117.130;2023-09-18T01:25:19;101155.22;;;19.63;63.94
60897;BME280;46749;32.932;-117.130;2023-09-18T01:27:45;101151.69;;;19.63;64.05
60897;BME280;46749;32.932;-117.130;2023-09-18T01:30:12;101154.34;;;19.63;63.62
60897;BME280;46749;32.932;-117.130;2023-09-18T01:32:39;101164.88;;;19.63;63.50
60897;BME280;46749;32.932;-117.130;2023-09-18T01:35:07;101160.47;;;19.63;64.00
60897;BME280;46749;32.932;-117.130;2023-09-18T01:37:36;101157.84;;;19.63;63.79
60897;BME280;46749;32.932;-117.130;2023-09-18T01:40:04;101164.00;;;19.62;63.71
60897;BME280;46749;32.932;-117.130;2023-09-18T01:42:33;101165.75;;;19.63;63.69
60897;BME280;46749;32.932;-117.130;2023-09-18T01:45:01;101167.50;;;19.64;63.88
60897;BME280;46749;32.932;-117.130;2023-09-18T01:47:28;101167.50;;;19.63;63.52
60897;BME280;46749;32.932;-117.130;2023-09-18T01:49:54;101161.38;;;19.64;63.88
60897;BME280;46749;32.932;-117.130;2023-09-18T01:52:21;101164.00;;;19.62;63.90
60897;BME280;46749;32.932;-117.130;2023-09-18T01:54:47;101171.03;;;19.63;63.62
60897;BME280;46749;32.932;-117.130;2023-09-18T01:57:14;101163.13;;;19.63;63.89
60897;BME280;46749;32.932;-117.130;2023-09-18T01:59:40;101171.03;;;19.63;63.79
60897;BME280;46749;32.932;-117.130;2023-09-18T02:02:07;101176.28;;;19.63;63.50
60897;BME280;46749;32.932;-117.130;2023-09-18T02:04:35;101176.28;;;19.63;63.63
60897;BME280;46749;32.932;-117.130;2023-09-18T02:07:02;101179.81;;;19.64;63.76
60897;BME280;46749;32.932;-117.130;2023-09-18T02:09:29;101181.56;;;19.63;64.01
60897;BME280;46749;32.932;-117.130;2023-09-18T02:11:55;101183.31;;;19.64;63.55
60897;BME280;46749;32.932;-117.130;2023-09-18T02:14:21;101176.28;;;19.65;63.59
60897;BME280;46749;32.932;-117.130;2023-09-18T02:16:47;101177.19;;;19.64;63.70
60897;BME280;46749;32.932;-117.130;2023-09-18T02:19:15;101178.06;;;19.64;63.78
60897;BME280;46749;32.932;-117.130;2023-09-18T02:21:42;101172.78;;;19.64;63.94
60897;BME280;46749;32.932;-117.130;2023-09-18T02:24:09;101178.06;;;19.64;63.47
60897;BME280;46749;32.932;-117.130;2023-09-18T02:26:35;101179.81;;;19.62;64.12
60897;BME280;46749;32.932;-117.130;2023-09-18T02:29:05;101185.03;;;19.61;64.00
60897;BME280;46749;32.932;-117.130;2023-09-18T02:31:31;101190.31;;;19.61;64.34
60897;BME280;46749;32.932;-117.130;2023-09-18T02:33:57;101194.69;;;19.60;64.67
60897;BME280;46749;32.932;-117.130;2023-09-18T02:36:23;101190.34;;;19.62;64.91
60897;BME280;46749;32.932;-117.130;2023-09-18T02:38:50;101191.19;;;19.60;65.05
60897;BME280;46749;32.932;-117.130;2023-09-18T02:41:16;101188.56;;;19.58;64.71
60897;BME280;46749;32.932;-117.130;2023-09-18T02:43:42;101191.19;;;19.60;65.08
60897;BME280;46749;32.932;-117.130;2023-09-18T02:46:09;101192.06;;;19.60;64.98
60897;BME280;46749;32.932;-117.130;2023-09-18T02:48:35;101198.22;;;19.61;64.99
60897;BME280;46749;32.932;-117.130;2023-09-18T02:51:02;101193.84;;;19.61;65.15
60897;BME280;46749;32.932;-117.130;2023-09-18T02:53:28;101200.00;;;19.65;64.89
60897;BME280;46749;32.932;-117.130;2023-09-18T02:55:56;101206.19;;;19.69;64.80
60897;BME280;46749;32.932;-117.130;2023-09-18T02:58:23;101203.56;;;19.70;64.89
60897;BME280;46749;32.932;-117.130;2023-09-18T03:00:52;101211.47;;;19.72;64.93
60897;BME280;46749;32.932;-117.130;2023-09-18T03:03:22;101211.50;;;19.75;64.87
60897;BME280;46749;32.932;-117.130;2023-09-18T03:05:49;101215.88;;;19.73;65.16
60897;BME280;46749;32.932;-117.130;2023-09-18T03:08:15;101213.22;;;19.70;65.07
60897;BME280;46749;32.932;-117.130;2023-09-18T03:10:43;101210.59;;;19.68;64.98
60897;BME280;46749;32.932;-117.130;2023-09-18T03:13:11;101206.16;;;19.65;64.93
60897;BME280;46749;32.932;-117.130;2023-09-18T03:15:37;101214.94;;;19.64;65.34
60897;BME280;46749;32.932;-117.130;2023-09-18T03:18:06;101211.44;;;19.62;65.05
60897;BME280;46749;32.932;-117.130;2023-09-18T03:20:33;101212.31;;;19.61;65.01
60897;BME280;46749;32.932;-117.130;2023-09-18T03:23:00;101226.31;;;19.60;65.41
60897;BME280;46749;32.932;-117.130;2023-09-18T03:25:27;101221.94;;;19.59;65.18
60897;BME280;46749;32.932;-117.130;2023-09-18T03:27:55;101226.31;;;19.59;65.29
60897;BME280;46749;32.932;-117.130;2023-09-18T03:30:22;101228.06;;;19.58;65.11
60897;BME280;46749;32.932;-117.130;2023-09-18T03:32:52;101226.31;;;19.59;65.15
60897;BME280;46749;32.932;-117.130;2023-09-18T03:35:19;101234.22;;;19.59;65.00
60897;BME280;46749;32.932;-117.130;2023-09-18T03:37:51;101235.94;;;19.57;65.11
60897;BME280;46749;32.932;-117.130;2023-09-18T03:40:18;101231.56;;;19.57;64.99
60897;BME280;46749;32.932;-117.130;2023-09-18T03:42:45;101228.03;;;19.55;65.02
60897;BME280;46749;32.932;-117.130;2023-09-18T03:45:12;101238.56;;;19.55;64.98
60897;BME280;46749;32.932;-117.130;2023-09-18T03:47:40;101241.22;;;19.55;65.13
60897;BME280;46749;32.932;-117.130;2023-09-18T03:50:10;101236.81;;;19.56;65.38
60897;BME280;46749;32.932;-117.130;2023-09-18T03:52:37;101242.03;;;19.54;65.64
60897;BME280;46749;32.932;-117.130;2023-09-18T03:55:07;101238.53;;;19.54;65.20
60897;BME280;46749;32.932;-117.130;2023-09-18T03:57:34;101242.03;;;19.54;65.04
60897;BME280;46749;32.932;-117.130;2023-09-18T04:00:01;101232.38;;;19.53;64.94
60897;BME280;46749;32.932;-117.130;2023-09-18T04:02:27;101243.81;;;19.52;65.43
60897;BME280;46749;32.932;-117.130;2023-09-18T04:04:53;101237.66;;;19.53;65.41
60897;BME280;46749;32.932;-117.130;2023-09-18T04:07:20;101230.63;;;19.54;65.30
60897;BME280;46749;32.932;-117.130;2023-09-18T04:09:47;101245.56;;;19.52;64.88
60897;BME280;46749;32.932;-117.130;2023-09-18T04:12:13;101242.91;;;19.52;65.02
60897;BME280;46749;32.932;-117.130;2023-09-18T04:14:39;101245.56;;;19.52;64.96
60897;BME280;46749;32.932;-117.130;2023-09-18T04:17:06;101249.06;;;19.52;65.35
60897;BME280;46749;32.932;-117.130;2023-09-18T04:19:32;101256.09;;;19.52;64.92
60897;BME280;46749;32.932;-117.130;2023-09-18T04:21:58;101256.09;;;19.52;65.39
60897;BME280;46749;32.932;-117.130;2023-09-18T04:24:26;101253.47;;;19.50;65.36
60897;BME280;46749;32.932;-117.130;2023-09-18T04:26:52;101255.22;;;19.51;65.01
60897;BME280;46749;32.932;-117.130;2023-09-18T04:29:19;101255.22;;;19.51;65.04
60897;BME280;46749;32.932;-117.130;2023-09-18T04:31:45;101258.72;;;19.50;65.22
60897;BME280;46749;32.932;-117.130;2023-09-18T04:34:11;101264.00;;;19.50;64.97
60897;BME280;46749;32.932;-117.130;2023-09-18T04:36:38;101261.34;;;19.50;65.07
60897;BME280;46749;32.932;-117.130;2023-09-18T04:39:05;101253.47;;;19.50;64.96
60897;BME280;46749;32.932;-117.130;2023-09-18T04:41:32;101240.28;;;19.49;65.05
60897;BME280;46749;32.932;-117.130;2023-09-18T04:43:59;101247.31;;;19.50;65.08
60897;BME280;46749;32.932;-117.130;2023-09-18T04:46:25;101248.19;;;19.50;64.99
60897;BME280;46749;32.932;-117.130;2023-09-18T04:48:51;101250.81;;;19.49;65.15
60897;BME280;46749;32.932;-117.130;2023-09-18T04:51:18;101253.44;;;19.49;65.30
60897;BME280;46749;32.932;-117.130;2023-09-18T04:53:44;101256.97;;;19.49;65.30
60897;BME280;46749;32.932;-117.130;2023-09-18T04:56:10;101252.53;;;19.48;65.30
60897;BME280;46749;32.932;-117.130;2023-09-18T04:58:37;101265.72;;;19.48;65.31
60897;BME280;46749;32.932;-117.130;2023-09-18T05:01:04;101260.44;;;19.48;65.23
60897;BME280;46749;32.932;-117.130;2023-09-18T05:03:34;101264.81;;;19.48;65.04
60897;BME280;46749;32.932;-117.130;2023-09-18T05:06:01;101259.56;;;19.48;65.13
60897;BME280;46749;32.932;-117.130;2023-09-18T05:08:29;101259.56;;;19.48;64.99
60897;BME280;46749;32.932;-117.130;2023-09-18T05:10:55;101259.56;;;19.46;65.13
60897;BME280;46749;32.932;-117.130;2023-09-18T05:13:21;101260.44;;;19.47;64.96
60897;BME280;46749;32.932;-117.130;2023-09-18T05:15:47;101262.19;;;19.46;65.13
60897;BME280;46749;32.932;-117.130;2023-09-18T05:18:13;101254.28;;;19.46;64.86
60897;BME280;46749;32.932;-117.130;2023-09-18T05:20:40;101259.56;;;19.46;65.00
60897;BME280;46749;32.932;-117.130;2023-09-18T05:23:06;101260.44;;;19.47;65.46
60897;BME280;46749;32.932;-117.130;2023-09-18T05:25:34;101254.28;;;19.46;65.31
60897;BME280;46749;32.932;-117.130;2023-09-18T05:28:03;101256.91;;;19.46;65.14
60897;BME280;46749;32.932;-117.130;2023-09-18T05:30:33;101246.38;;;19.46;64.90
60897;BME280;46749;32.932;-117.130;2023-09-18T05:33:02;101247.25;;;19.45;65.37
60897;BME280;46749;32.932;-117.130;2023-09-18T05:35:44;101244.63;;;19.45;65.35
60897;BME280;46749;32.932;-117.130;2023-09-18T05:38:11;101244.63;;;19.45;65.38
60897;BME280;46749;32.932;-117.130;2023-09-18T05:40:41;101244.63;;;19.45;65.15
60897;BME280;46749;32.932;-117.130;2023-09-18T05:43:09;101247.25;;;19.45;65.37
60897;BME280;46749;32.932;-117.130;2023-09-18T05:45:35;101249.88;;;19.45;65.00
60897;BME280;46749;32.932;-117.130;2023-09-18T05:48:02;101248.13;;;19.46;64.98
60897;BME280;46749;32.932;-117.130;2023-09-18T05:50:32;101242.88;;;19.44;65.02
60897;BME280;46749;32.932;-117.130;2023-09-18T05:52:59;101257.78;;;19.45;65.29
60897;BME280;46749;32.932;-117.130;2023-09-18T05:55:32;101252.53;;;19.44;65.32
60897;BME280;46749;32.932;-117.130;2023-09-18T05:57:58;101243.75;;;19.43;64.92
60897;BME280;46749;32.932;-117.130;2023-09-18T06:00:25;101247.25;;;19.44;65.03
60897;BME280;46749;32.932;-117.130;2023-09-18T06:02:51;101246.38;;;19.43;65.09
60897;BME280;46749;32.932;-117.130;2023-09-18T06:05:18;101246.38;;;19.43;64.94
60897;BME280;46749;32.932;-117.130;2023-09-18T06:07:48;101250.75;;;19.43;65.32
60897;BME280;46749;32.932;-117.130;2023-09-18T06:10:15;101255.13;;;19.42;65.38
60897;BME280;46749;32.932;-117.130;2023-09-18T06:12:42;101249.84;;;19.42;65.27
60897;BME280;46749;32.932;-117.130;2023-09-18T06:15:09;101248.09;;;19.41;65.43
60897;BME280;46749;32.932;-117.130;2023-09-18T06:17:41;101242.81;;;19.41;65.14
60897;BME280;46749;32.932;-117.130;2023-09-18T06:20:08;101249.84;;;19.42;65.05
60897;BME280;46749;32.932;-117.130;2023-09-18T06:22:37;101250.72;;;19.41;64.93
60897;BME280;46749;32.932;-117.130;2023-09-18T06:25:05;101258.63;;;19.41;65.22
60897;BME280;46749;32.932;-117.130;2023-09-18T06:27:34;101257.75;;;19.40;65.03
60897;BME280;46749;32.932;-117.130;2023-09-18T06:30:03;101252.47;;;19.40;65.12
60897;BME280;46749;32.932;-117.130;2023-09-18T06:32:29;101244.56;;;19.40;65.12
60897;BME280;46749;32.932;-117.130;2023-09-18T06:34:55;101251.59;;;19.40;64.98
60897;BME280;46749;32.932;-117.130;2023-09-18T06:37:24;101247.22;;;19.39;65.03
60897;BME280;46749;32.932;-117.130;2023-09-18T06:39:50;101241.94;;;19.40;65.27
60897;BME280;46749;32.932;-117.130;2023-09-18T06:42:17;101244.56;;;19.39;65.37
60897;BME280;46749;32.932;-117.130;2023-09-18T06:44:44;101244.56;;;19.39;65.08
60897;BME280;46749;32.932;-117.130;2023-09-18T06:47:10;101249.84;;;19.39;65.04
60897;BME280;46749;32.932;-117.130;2023-09-18T06:49:36;101241.06;;;19.38;65.42
60897;BME280;46749;32.932;-117.130;2023-09-18T06:52:02;101244.56;;;19.39;65.33
60897;BME280;46749;32.932;-117.130;2023-09-18T06:54:29;101248.97;;;19.38;65.32
60897;BME280;46749;32.932;-117.130;2023-09-18T06:56:55;101246.31;;;19.38;65.43
60897;BME280;46749;32.932;-117.130;2023-09-18T06:59:21;101248.09;;;19.38;65.47
60897;BME280;46749;32.932;-117.130;2023-09-18T07:01:47;101243.69;;;19.37;65.26
60897;BME280;46749;32.932;-117.130;2023-09-18T07:04:13;101242.81;;;19.38;64.98
60897;BME280;46749;32.932;-117.130;2023-09-18T07:06:40;101251.59;;;19.37;65.08
60897;BME280;46749;32.932;-117.130;2023-09-18T07:09:06;101258.63;;;19.38;65.30
60897;BME280;46749;32.932;-117.130;2023-09-18T07:11:33;101258.63;;;19.38;64.98
60897;BME280;46749;32.932;-117.130;2023-09-18T07:14:01;101243.69;;;19.37;65.41
60897;BME280;46749;32.932;-117.130;2023-09-18T07:16:32;101253.34;;;19.38;65.30
60897;BME280;46749;32.932;-117.130;2023-09-18T07:18:59;101250.72;;;19.36;65.15
60897;BME280;46749;32.932;-117.130;2023-09-18T07:21:26;101249.84;;;19.36;65.52
60897;BME280;46749;32.932;-117.130;2023-09-18T07:23:54;101253.31;;;19.35;65.23
60897;BME280;46749;32.932;-117.130;2023-09-18T07:26:20;101251.56;;;19.35;65.46
60897;BME280;46749;32.932;-117.130;2023-09-18T07:28:47;101255.94;;;19.35;65.41
60897;BME280;46749;32.932;-117.130;2023-09-18T07:31:13;101252.47;;;19.36;65.17
60897;BME280;46749;32.932;-117.130;2023-09-18T07:33:41;101243.66;;;19.35;65.09
60897;BME280;46749;32.932;-117.130;2023-09-18T07:36:07;101254.19;;;19.35;65.40
60897;BME280;46749;32.932;-117.130;2023-09-18T07:38:35;101253.31;;;19.35;65.42
60897;BME280;46749;32.932;-117.130;2023-09-18T07:41:03;101250.66;;;19.35;65.26
60897;BME280;46749;32.932;-117.130;2023-09-18T07:43:29;101260.31;;;19.34;64.96
60897;BME280;46749;32.932;-117.130;2023-09-18T07:45:56;101257.69;;;19.34;64.96
60897;BME280;46749;32.932;-117.130;2023-09-18T07:48:23;101260.31;;;19.33;65.58
60897;BME280;46749;32.932;-117.130;2023-09-18T07:50:50;101269.97;;;19.34;65.16
60897;BME280;46749;32.932;-117.130;2023-09-18T07:53:16;101256.81;;;19.34;65.51
60897;BME280;46749;32.932;-117.130;2023-09-18T07:55:42;101262.06;;;19.34;65.51
60897;BME280;46749;32.932;-117.130;2023-09-18T07:58:08;101255.94;;;19.33;65.13
60897;BME280;46749;32.932;-117.130;2023-09-18T08:00:35;101261.19;;;19.33;65.50
60897;BME280;46749;32.932;-117.130;2023-09-18T08:03:01;101270.84;;;19.33;65.39
60897;BME280;46749;32.932;-117.130;2023-09-18T08:05:27;101269.09;;;19.33;65.04
60897;BME280;46749;32.932;-117.130;2023-09-18T08:07:54;101269.97;;;19.34;65.31
60897;BME280;46749;32.932;-117.130;2023-09-18T08:10:25;101255.06;;;19.33;65.20
60897;BME280;46749;32.932;-117.130;2023-09-18T08:12:51;101259.44;;;19.32;65.10
60897;BME280;46749;32.932;-117.130;2023-09-18T08:15:19;101258.56;;;19.32;65.45
60897;BME280;46749;32.932;-117.130;2023-09-18T08:17:46;101255.94;;;19.32;64.98
60897;BME280;46749;32.932;-117.130;2023-09-18T08:20:14;101255.94;;;19.32;65.54
60897;BME280;46749;32.932;-117.130;2023-09-18T08:22:42;101259.44;;;19.32;65.35
60897;BME280;46749;32.932;-117.130;2023-09-18T08:25:09;101255.94;;;19.32;65.00
60897;BME280;46749;32.932;-117.130;2023-09-18T08:27:42;101253.28;;;19.32;65.14
60897;BME280;46749;32.932;-117.130;2023-09-18T08:30:12;101248.03;;;19.32;65.16
60897;BME280;46749;32.932;-117.130;2023-09-18T08:32:39;101252.41;;;19.31;64.92
60897;BME280;46749;32.932;-117.130;2023-09-18T08:35:07;101244.50;;;19.31;65.24
60897;BME280;46749;32.932;-117.130;2023-09-18T08:37:33;101252.41;;;19.31;65.42
60897;BME280;46749;32.932;-117.130;2023-09-18T08:40:01;101245.38;;;19.30;65.51
60897;BME280;46749;32.932;-117.130;2023-09-18T08:42:38;101243.63;;;19.31;65.04
60897;BME280;46749;32.932;-117.130;2023-09-18T08:45:08;101243.63;;;19.31;65.15
60897;BME280;46749;32.932;-117.130;2023-09-18T08:47:40;101240.13;;;19.30;65.48
60897;BME280;46749;32.932;-117.130;2023-09-18T08:50:08;101236.59;;;19.30;65.17
60897;BME280;46749;32.932;-117.130;2023-09-18T08:52:38;101248.03;;;19.30;64.99
60897;BME280;46749;32.932;-117.130;2023-09-18T08:55:06;101239.25;;;19.30;65.47
60897;BME280;46749;32.932;-117.130;2023-09-18T08:57:33;101242.72;;;19.29;65.38
60897;BME280;46749;32.932;-117.130;2023-09-18T09:00:01;101240.97;;;19.29;65.02
60897;BME280;46749;32.932;-117.130;2023-09-18T09:02:33;101238.31;;;19.29;65.28
60897;BME280;46749;32.932;-117.130;2023-09-18T09:04:59;101237.44;;;19.29;65.07
60897;BME280;46749;32.932;-117.130;2023-09-18T09:07:26;101237.44;;;19.29;65.40
60897;BME280;46749;32.932;-117.130;2023-09-18T09:09:54;101234.81;;;19.29;65.04
60897;BME280;46749;32.932;-117.130;2023-09-18T09:15:31;101240.97;;;19.29;64.98
60897;BME280;46749;32.932;-117.130;2023-09-18T09:18:05;101239.25;;;19.30;65.17
60897;BME280;46749;32.932;-117.130;2023-09-18T09:20:32;101231.31;;;19.28;65.48
60897;BME280;46749;32.932;-117.130;2023-09-18T09:23:03;101225.16;;;19.28;65.11
60897;BME280;46749;32.932;-117.130;2023-09-18T09:25:31;101228.66;;;19.27;65.49
60897;BME280;46749;32.932;-117.130;2023-09-18T09:27:59;101219.88;;;19.28;65.28
60897;BME280;46749;32.932;-117.130;2023-09-18T09:30:27;101226.03;;;19.27;65.24
60897;BME280;46749;32.932;-117.130;2023-09-18T09:32:56;101218.13;;;19.27;65.17
60897;BME280;46749;32.932;-117.130;2023-09-18T09:35:27;101226.03;;;19.27;65.32
60897;BME280;46749;32.932;-117.130;2023-09-18T09:37:58;101225.16;;;19.28;65.11
60897;BME280;46749;32.932;-117.130;2023-09-18T09:40:26;101225.16;;;19.28;65.43
60897;BME280;46749;32.932;-117.130;2023-09-18T09:42:54;101232.19;;;19.27;65.24
60897;BME280;46749;32.932;-117.130;2023-09-18T09:45:28;101222.50;;;19.26;65.16
60897;BME280;46749;32.932;-117.130;2023-09-18T09:47:56;101229.53;;;19.26;65.11
60897;BME280;46749;32.932;-117.130;2023-09-18T09:50:23;101228.66;;;19.27;65.32
60897;BME280;46749;32.932;-117.130;2023-09-18T09:52:53;101232.16;;;19.26;65.47
60897;BME280;46749;32.932;-117.130;2023-09-18T09:55:25;101226.03;;;19.27;65.32
60897;BME280;46749;32.932;-117.130;2023-09-18T09:58:00;101228.66;;;19.27;65.47
60897;BME280;46749;32.932;-117.130;2023-09-18T10:00:33;101221.63;;;19.26;65.43
60897;BME280;46749;32.932;-117.130;2023-09-18T10:03:07;101216.38;;;19.26;65.29
60897;BME280;46749;32.932;-117.130;2023-09-18T10:05:39;101219.88;;;19.26;65.09
60897;BME280;46749;32.932;-117.130;2023-09-18T10:08:12;101216.38;;;19.26;65.02
60897;BME280;46749;32.932;-117.130;2023-09-18T10:10:43;101218.13;;;19.27;65.36
60897;BME280;46749;32.932;-117.130;2023-09-18T10:13:36;101217.25;;;19.25;65.10
60897;BME280;46749;32.932;-117.130;2023-09-18T10:16:07;101218.13;;;19.25;65.03
60897;BME280;46749;32.932;-117.130;2023-09-18T10:18:42;101217.25;;;19.25;65.47
60897;BME280;46749;32.932;-117.130;2023-09-18T10:24:10;101218.13;;;19.24;65.45
60897;BME280;46749;32.932;-117.130;2023-09-18T10:26:56;101219.00;;;19.24;65.23
60897;BME280;46749;32.932;-117.130;2023-09-18T10:29:23;101215.47;;;19.24;64.98
60897;BME280;46749;32.932;-117.130;2023-09-18T10:31:51;101219.84;;;19.23;65.52
60897;BME280;46749;32.932;-117.130;2023-09-18T10:34:21;101218.06;;;19.22;65.24
60897;BME280;46749;32.932;-117.130;2023-09-18T10:36:49;101223.38;;;19.24;64.98
60897;BME280;46749;32.932;-117.130;2023-09-18T10:39:16;101226.84;;;19.23;65.32
60897;BME280;46749;32.932;-117.130;2023-09-18T10:41:53;101224.22;;;19.23;65.24
60897;BME280;46749;32.932;-117.130;2023-09-18T10:44:20;101222.47;;;19.23;65.12
60897;BME280;46749;32.932;-117.130;2023-09-18T10:46:47;101223.38;;;19.24;65.41
60897;BME280;46749;32.932;-117.130;2023-09-18T10:49:15;101228.63;;;19.22;65.13
60897;BME280;46749;32.932;-117.130;2023-09-18T10:51:41;101221.59;;;19.23;64.98
60897;BME280;46749;32.932;-117.130;2023-09-18T10:54:12;101222.47;;;19.22;65.48
60897;BME280;46749;32.932;-117.130;2023-09-18T10:56:42;101226.84;;;19.23;65.05
60897;BME280;46749;32.932;-117.130;2023-09-18T10:59:08;101225.97;;;19.22;65.25
60897;BME280;46749;32.932;-117.130;2023-09-18T11:01:35;101227.72;;;19.22;65.49
60897;BME280;46749;32.932;-117.130;2023-09-18T11:04:06;101230.38;;;19.22;65.14
60897;BME280;46749;32.932;-117.130;2023-09-18T11:09:44;101227.72;;;19.22;65.44
60897;BME280;46749;32.932;-117.130;2023-09-18T11:12:11;101221.59;;;19.21;65.14
60897;BME280;46749;32.932;-117.130;2023-09-18T11:14:50;101223.34;;;19.21;65.27
60897;BME280;46749;32.932;-117.130;2023-09-18T11:17:42;101229.50;;;19.21;65.50
60897;BME280;46749;32.932;-117.130;2023-09-18T11:22:40;101228.59;;;19.21;65.07
60897;BME280;46749;32.932;-117.130;2023-09-18T11:28:07;101221.59;;;19.20;65.12
60897;BME280;46749;32.932;-117.130;2023-09-18T11:30:37;101227.72;;;19.20;65.53
60897;BME280;46749;32.932;-117.130;2023-09-18T11:33:06;101231.22;;;19.19;65.56
60897;BME280;46749;32.932;-117.130;2023-09-18T11:35:35;101227.72;;;19.19;65.08
60897;BME280;46749;32.932;-117.130;2023-09-18T11:38:10;101219.81;;;19.19;65.52
60897;BME280;46749;32.932;-117.130;2023-09-18T11:40:39;101225.97;;;19.19;65.32
60897;BME280;46749;32.932;-117.130;2023-09-18T11:43:26;101224.22;;;19.18;65.48
60897;BME280;46749;32.932;-117.130;2023-09-18T11:45:59;101226.84;;;19.20;65.16
60897;BME280;46749;32.932;-117.130;2023-09-18T11:48:28;101225.09;;;19.19;65.38
60897;BME280;46749;32.932;-117.130;2023-09-18T11:50:58;101221.56;;;19.18;65.22
60897;BME280;46749;32.932;-117.130;2023-09-18T11:53:27;101222.44;;;19.19;65.11
60897;BME280;46749;32.932;-117.130;2023-09-18T11:55:54;101220.69;;;19.18;65.54
60897;BME280;46749;32.932;-117.130;2023-09-18T11:58:21;101215.44;;;19.18;65.46
60897;BME280;46749;32.932;-117.130;2023-09-18T12:00:50;101216.28;;;19.17;65.40
60897;BME280;46749;32.932;-117.130;2023-09-18T12:03:21;101219.81;;;19.17;65.32
60897;BME280;46749;32.932;-117.130;2023-09-18T12:05:58;101220.69;;;19.18;65.07
60897;BME280;46749;32.932;-117.130;2023-09-18T12:08:26;101212.78;;;19.18;65.03
60897;BME280;46749;32.932;-117.130;2023-09-18T12:10:55;101218.91;;;19.17;65.54
60897;BME280;46749;32.932;-117.130;2023-09-18T12:13:24;101215.44;;;19.18;65.15
60897;BME280;46749;32.932;-117.130;2023-09-18T12:15:56;101215.38;;;19.16;65.53
60897;BME280;46749;32.932;-117.130;2023-09-18T12:18:23;101216.28;;;19.17;65.31
60897;BME280;46749;32.932;-117.130;2023-09-18T12:20:50;101222.41;;;19.16;65.43
60897;BME280;46749;32.932;-117.130;2023-09-18T12:23:17;101218.91;;;19.17;65.00
60897;BME280;46749;32.932;-117.130;2023-09-18T12:25:56;101235.56;;;19.16;65.49
60897;BME280;46749;32.932;-117.130;2023-09-18T12:28:23;101225.03;;;19.16;65.50
60897;BME280;46749;32.932;-117.130;2023-09-18T12:30:53;101219.78;;;19.16;65.47
60897;BME280;46749;32.932;-117.130;2023-09-18T12:33:22;101227.69;;;19.16;65.56
60897;BME280;46749;32.932;-117.130;2023-09-18T12:35:50;101224.16;;;19.15;65.15
60897;BME280;46749;32.932;-117.130;2023-09-18T12:38:18;101218.03;;;19.14;65.06
60897;BME280;46749;32.932;-117.130;2023-09-18T12:40:53;101224.16;;;19.15;65.33